Weather at Rancho San Rafael Airstrip [CLOSED]

Public forecast

Using degrees Celsius for public forecast. Weather courtesy of forecast.io.

Closest aviation weather report (METAR) to Rancho San Rafael Airstrip

Closest report is Nogales International Airport, 32.1 nm (59.5 km) NNW. Retrieved 2021/06/25 02:54 UTC (7 minutes ago):

KOLS 250254Z AUTO 27005KT 10SM CLR 30/11 A3000 RMK AO2 SLP081 T03000106 53004

Closest aviation forecast (TAF) to Rancho San Rafael Airstrip

Closest forecast is Nogales International Airport, 32.1 nm (59.5 km) NNW. Retrieved 2021-06-25 00:22 UTC (3 hours ago):

TAF KOLS 242320Z 2500/2524 24010G17KT P6SM SCT080 BKN200 FM250200 26009KT P6SM SCT200 FM250600 VRB04KT P6SM SKC FM252000 25010G17KT P6SM FEW090